Brighstone, United Kingdom
Current Conditions -  °F | °C
As of 9:50 PM on Thursday 20 Nov 2014 (Local Time) from EGHI Reporting Station
Broken Clouds Broken Clouds  
Wind Chill: 44°   Ceiling: 1500
Heat Index: 46°   Visibility: 6mi
Dew Point: 43°   Wind: 6mph
Humidity: 87%   Direction: 90°E
Pressure: 30.21"   Gusts: NA
Location:  50.64°N, 1.39°W
Report Text: EGHI 202150Z 09005KT 030V160 9000 BKN015 08/06 Q1023
Loading
Personal Weather Stations






























Interactive Weather Map New forecast layout! Learn more

10-Day Weather Forecast

Advertisements
Track Severe Weather on mobile